Time;durP1;ratioP1;P1;durP2;ratioP2;P2;SDS_P1;SDS_P2;PMS_P1;PMS_P2;Temp;Humidity;BMP_temperature;BMP_pressure;BME280_temperature;BME280_humidity;BME280_pressure;Samples;Min_cycle;Max_cycle;Signal;HPM_P1;HPM_P2
2022/11/26 00:04:34;;;;;;;36.7;30.5;;;;;;;5.1;87.1;99320;;;;
2022/11/26 00:15:34;;;;;;;36.7;30.5;;;;;;;5.1;87.2;99330;;;;
2022/11/26 00:25:34;;;;;;;36.7;30.5;;;;;;;5;87.2;99330;;;;
2022/11/26 00:35:34;;;;;;;36.4;29;;;;;;;4.9;87.1;99340;;;;
2022/11/26 00:45:34;;;;;;;36.4;29;;;;;;;4.7;87.5;99340;;;;
2022/11/26 00:56:34;;;;;;;36.4;29;;;;;;;4.8;87.6;99350;;;;
2022/11/26 01:06:34;;;;;;;34.4;25.2;;;;;;;4.8;87.6;99350;;;;
2022/11/26 01:17:34;;;;;;;34.4;25.2;;;;;;;4.7;87.6;99360;;;;
2022/11/26 01:28:34;;;;;;;34.4;25.2;;;;;;;4.9;87.4;99360;;;;
2022/11/26 01:39:34;;;;;;;25.3;17.1;;;;;;;5;86.9;99360;;;;
2022/11/26 01:49:34;;;;;;;25.3;17.1;;;;;;;5.1;86.8;99370;;;;
2022/11/26 01:59:34;;;;;;;25.3;17.1;;;;;;;5.1;86.2;99380;;;;
2022/11/26 02:09:34;;;;;;;20.8;14.8;;;;;;;5.1;86.1;99380;;;;
2022/11/26 02:19:34;;;;;;;20.8;14.8;;;;;;;5.2;86.1;99380;;;;
2022/11/26 02:29:34;;;;;;;20.8;14.8;;;;;;;5.2;85.9;99390;;;;
2022/11/26 02:39:34;;;;;;;32.6;22.4;;;;;;;5.1;85.7;99390;;;;
2022/11/26 02:50:34;;;;;;;32.6;22.4;;;;;;;5;85.8;99400;;;;
2022/11/26 03:01:34;;;;;;;27.3;22.6;;;;;;;5;86;99400;;;;
2022/11/26 03:12:34;;;;;;;27.3;22.6;;;;;;;5.1;85.9;99410;;;;
2022/11/26 03:23:34;;;;;;;27.3;22.6;;;;;;;5.1;85.9;99410;;;;
2022/11/26 03:34:34;;;;;;;20.5;16.1;;;;;;;5;85.8;99410;;;;
2022/11/26 03:45:34;;;;;;;20.5;16.1;;;;;;;5;85.8;99420;;;;
2022/11/26 03:56:34;;;;;;;20.5;16.1;;;;;;;5;85.7;99420;;;;
2022/11/26 04:06:34;;;;;;;20.1;15.2;;;;;;;5;85.6;99430;;;;
2022/11/26 04:17:34;;;;;;;20.1;15.2;;;;;;;4.7;85.5;99430;;;;
2022/11/26 04:27:34;;;;;;;20.1;15.2;;;;;;;4.5;86.2;99440;;;;
2022/11/26 04:37:34;;;;;;;81.3;50.6;;;;;;;4.3;86.5;99440;;;;
2022/11/26 04:47:34;;;;;;;81.3;50.6;;;;;;;4.1;87.1;99440;;;;
2022/11/26 04:58:34;;;;;;;81.3;50.6;;;;;;;3.9;87.2;99460;;;;
2022/11/26 05:08:34;;;;;;;76.5;46.5;;;;;;;3.7;87.4;99470;;;;
2022/11/26 05:19:34;;;;;;;76.5;46.5;;;;;;;3.5;87.5;99480;;;;
2022/11/26 05:29:34;;;;;;;26.4;16.1;;;;;;;3.3;87.3;99480;;;;
2022/11/26 05:40:34;;;;;;;26.4;16.1;;;;;;;3;87;99490;;;;
2022/11/26 05:50:34;;;;;;;26.4;16.1;;;;;;;2.6;86.8;99500;;;;
2022/11/26 06:01:34;;;;;;;26;14.9;;;;;;;2.3;86.7;99520;;;;
2022/11/26 06:12:34;;;;;;;26;14.9;;;;;;;1.9;86.8;99520;;;;
2022/11/26 06:22:34;;;;;;;26;14.9;;;;;;;1.9;87.5;99530;;;;
2022/11/26 06:33:34;;;;;;;18.8;10.4;;;;;;;1.8;88;99550;;;;
2022/11/26 06:43:34;;;;;;;18.8;10.4;;;;;;;1.7;88.2;99550;;;;
2022/11/26 06:54:34;;;;;;;18.8;10.4;;;;;;;1.9;88.7;99550;;;;
2022/11/26 07:05:34;;;;;;;13.9;8.7;;;;;;;2.5;90.3;99560;;;;
2022/11/26 07:16:34;;;;;;;13.9;8.7;;;;;;;3.1;90.8;99580;;;;
2022/11/26 07:27:34;;;;;;;13.9;8.7;;;;;;;3.5;90.4;99590;;;;
2022/11/26 07:37:34;;;;;;;38.6;19.4;;;;;;;3.9;90.1;99590;;;;
2022/11/26 07:48:34;;;;;;;38.6;19.4;;;;;;;4.3;89.6;99590;;;;
2022/11/26 07:58:34;;;;;;;38.6;19.4;;;;;;;4.7;89.1;99600;;;;
2022/11/26 08:08:34;;;;;;;31.3;23.8;;;;;;;5.3;89;99610;;;;
2022/11/26 08:19:34;;;;;;;31.3;23.8;;;;;;;5.9;88.4;99620;;;;
2022/11/26 08:29:34;;;;;;;25;20.4;;;;;;;6.2;86.9;99630;;;;
2022/11/26 08:40:34;;;;;;;25;20.4;;;;;;;6.6;85.8;99640;;;;
2022/11/26 08:50:34;;;;;;;25;20.4;;;;;;;6.6;84;99640;;;;
2022/11/26 09:01:34;;;;;;;24.3;20.9;;;;;;;6.8;83.5;99660;;;;
2022/11/26 09:12:34;;;;;;;24.3;20.9;;;;;;;6.8;83.1;99660;;;;
2022/11/26 09:22:34;;;;;;;24.3;20.9;;;;;;;6.8;83;99670;;;;
2022/11/26 09:33:34;;;;;;;42.4;33.7;;;;;;;7;82.6;99680;;;;
2022/11/26 09:44:34;;;;;;;42.4;33.7;;;;;;;7.3;82.5;99680;;;;
2022/11/26 09:54:34;;;;;;;42.4;33.7;;;;;;;7.1;82.4;99680;;;;
2022/11/26 10:05:34;;;;;;;42.4;37.5;;;;;;;7.1;83.5;99680;;;;
2022/11/26 10:15:34;;;;;;;42.4;37.5;;;;;;;7.1;83.8;99680;;;;
2022/11/26 10:26:34;;;;;;;42.4;37.5;;;;;;;7;84.4;99680;;;;
2022/11/26 10:36:34;;;;;;;46.7;41.8;;;;;;;7;84.8;99680;;;;
2022/11/26 10:46:34;;;;;;;46.7;41.8;;;;;;;6.9;85.7;99680;;;;
2022/11/26 10:56:34;;;;;;;46.7;41.8;;;;;;;7;85.9;99680;;;;
2022/11/26 11:07:35;;;;;;;42.8;37.1;;;;;;;7;86;99690;;;;
2022/11/26 11:17:34;;;;;;;42.8;37.1;;;;;;;7;86.4;99680;;;;
2022/11/26 11:27:34;;;;;;;42.8;37.1;;;;;;;7.2;86.5;99680;;;;
2022/11/26 11:38:34;;;;;;;42.7;38;;;;;;;7.4;86.3;99680;;;;
2022/11/26 11:49:34;;;;;;;42.7;38;;;;;;;7.5;86.3;99690;;;;
2022/11/26 11:59:46;;;;;;;50.1;41.2;;;;;;;7.6;86.4;99690;;;;
2022/11/26 12:09:34;;;;;;;50.1;41.2;;;;;;;7.7;86.9;99690;;;;
2022/11/26 12:20:34;;;;;;;50.1;41.2;;;;;;;7.7;87.1;99680;;;;
2022/11/26 12:30:35;;;;;;;42.4;37;;;;;;;7.6;87.3;99690;;;;
2022/11/26 12:40:34;;;;;;;42.4;37;;;;;;;7.5;87.8;99690;;;;
2022/11/26 12:50:34;;;;;;;42.4;37;;;;;;;7.5;87.9;99690;;;;
2022/11/26 13:01:34;;;;;;;29.2;23.1;;;;;;;7.6;87.8;99690;;;;
2022/11/26 13:11:34;;;;;;;29.2;23.1;;;;;;;7.5;87.7;99700;;;;
2022/11/26 13:22:34;;;;;;;29.2;23.1;;;;;;;7.4;87.7;99700;;;;
2022/11/26 13:33:34;;;;;;;25.5;20.2;;;;;;;7.3;87.6;99710;;;;
2022/11/26 13:43:34;;;;;;;25.5;20.2;;;;;;;7.2;88.1;99710;;;;
2022/11/26 13:54:34;;;;;;;25.5;20.2;;;;;;;7;89;99710;;;;
2022/11/26 14:05:34;;;;;;;25;19;;;;;;;7.1;89.1;99720;;;;
2022/11/26 14:16:34;;;;;;;25;19;;;;;;;7;89.5;99720;;;;
2022/11/26 14:27:34;;;;;;;25;19;;;;;;;6.8;90.3;99720;;;;
2022/11/26 14:37:34;;;;;;;29.6;23.6;;;;;;;6.7;90.7;99730;;;;
2022/11/26 14:48:34;;;;;;;29.6;23.6;;;;;;;6.9;90.6;99740;;;;
2022/11/26 14:58:34;;;;;;;30;24.7;;;;;;;6.8;90.5;99740;;;;
2022/11/26 15:09:34;;;;;;;30;24.7;;;;;;;6.8;90.3;99750;;;;
2022/11/26 15:19:34;;;;;;;30;24.7;;;;;;;6.9;90.1;99760;;;;
2022/11/26 15:29:34;;;;;;;37.8;28.3;;;;;;;6.8;90;99760;;;;
2022/11/26 15:39:34;;;;;;;37.8;28.3;;;;;;;6.8;90.1;99770;;;;
2022/11/26 15:50:34;;;;;;;37.8;28.3;;;;;;;6.9;90;99770;;;;
2022/11/26 16:01:34;;;;;;;39.7;29.5;;;;;;;6.9;89.7;99770;;;;
2022/11/26 16:11:35;;;;;;;39.7;29.5;;;;;;;7;89.6;99780;;;;
2022/11/26 16:22:34;;;;;;;39.7;29.5;;;;;;;7.1;89.5;99790;;;;
2022/11/26 16:33:34;;;;;;;40.7;33;;;;;;;7.1;88.9;99790;;;;
2022/11/26 16:43:34;;;;;;;40.7;33;;;;;;;7;89.1;99800;;;;
2022/11/26 16:53:34;;;;;;;40.7;33;;;;;;;7;89.2;99800;;;;
2022/11/26 17:03:34;;;;;;;44.6;38.1;;;;;;;6.9;89.8;99810;;;;
2022/11/26 17:14:34;;;;;;;44.6;38.1;;;;;;;7;90;99820;;;;
2022/11/26 17:25:34;;;;;;;44.6;38.1;;;;;;;7;90;99820;;;;
2022/11/26 17:36:34;;;;;;;44.8;38.1;;;;;;;6.9;90.4;99840;;;;
2022/11/26 17:46:34;;;;;;;44.8;38.1;;;;;;;6.9;90.7;99840;;;;
2022/11/26 17:57:34;;;;;;;44.8;38.1;;;;;;;6.9;90.6;99850;;;;
2022/11/26 18:08:34;;;;;;;43.8;35.6;;;;;;;6.8;90.8;99870;;;;
2022/11/26 18:18:34;;;;;;;43.8;35.6;;;;;;;6.6;90.7;99870;;;;
2022/11/26 18:28:34;;;;;;;32.7;27;;;;;;;6.6;90.3;99880;;;;
2022/11/26 18:38:35;;;;;;;32.7;27;;;;;;;6.6;90.2;99880;;;;
2022/11/26 18:48:34;;;;;;;32.7;27;;;;;;;6.5;89.6;99890;;;;
2022/11/26 18:59:34;;;;;;;27.1;20.7;;;;;;;6.4;89.1;99890;;;;
2022/11/26 19:10:35;;;;;;;27.1;20.7;;;;;;;6.3;88.9;99900;;;;
2022/11/26 19:21:34;;;;;;;27.1;20.7;;;;;;;6.1;88.6;99920;;;;
2022/11/26 19:31:35;;;;;;;23.7;18.6;;;;;;;6;88.6;99930;;;;
2022/11/26 19:42:34;;;;;;;23.7;18.6;;;;;;;5.8;88.8;99960;;;;
2022/11/26 19:53:34;;;;;;;23.7;18.6;;;;;;;5.8;89.4;99960;;;;
2022/11/26 20:03:34;;;;;;;35.9;26.1;;;;;;;5.6;89.6;99990;;;;
2022/11/26 20:13:35;;;;;;;35.9;26.1;;;;;;;5.7;89.7;99990;;;;
2022/11/26 20:24:34;;;;;;;35.9;26.1;;;;;;;5.4;89.5;100000;;;;
2022/11/26 20:35:34;;;;;;;31;24.1;;;;;;;5.3;89.4;100010;;;;
2022/11/26 20:45:34;;;;;;;31;24.1;;;;;;;5.3;89;100010;;;;
2022/11/26 20:55:34;;;;;;;31;24.1;;;;;;;5.3;88.9;100020;;;;
2022/11/26 21:06:34;;;;;;;29.5;22;;;;;;;5.3;89.1;100010;;;;
2022/11/26 21:17:35;;;;;;;29.5;22;;;;;;;5.2;89;100010;;;;
2022/11/26 21:28:34;;;;;;;38.3;26.6;;;;;;;5.3;88.7;100020;;;;
2022/11/26 21:39:35;;;;;;;38.3;26.6;;;;;;;5.2;88.6;100020;;;;
2022/11/26 21:50:34;;;;;;;38.3;26.6;;;;;;;5.2;88.3;100030;;;;
2022/11/26 22:00:34;;;;;;;37.8;28.9;;;;;;;5.2;88.5;100040;;;;
2022/11/26 22:11:34;;;;;;;37.8;28.9;;;;;;;5;88.6;100050;;;;
2022/11/26 22:21:34;;;;;;;37.8;28.9;;;;;;;5;88.6;100060;;;;
2022/11/26 22:32:34;;;;;;;38.9;28.5;;;;;;;5;88.5;100060;;;;
2022/11/26 22:43:34;;;;;;;38.9;28.5;;;;;;;4.9;88.3;100070;;;;
2022/11/26 22:54:34;;;;;;;38.9;28.5;;;;;;;4.7;88.2;100070;;;;
2022/11/26 23:04:34;;;;;;;36;24.5;;;;;;;4.7;87.9;100070;;;;
2022/11/26 23:15:34;;;;;;;36;24.5;;;;;;;4.6;87.2;100070;;;;
2022/11/26 23:25:34;;;;;;;36;24.5;;;;;;;4.6;87.2;100060;;;;
2022/11/26 23:35:34;;;;;;;27.1;19.6;;;;;;;4.7;87.1;100060;;;;
2022/11/26 23:46:35;;;;;;;27.1;19.6;;;;;;;4.7;87.3;100070;;;;
2022/11/26 23:57:34;;;;;;;30.1;19.8;;;;;;;4.8;87.4;100070;;;;
